createdAt,value
2018-04-17T00:00:06.523Z,13.08
2018-04-17T00:02:34.804Z,13.16
2018-04-17T00:05:03.103Z,13.19
2018-04-17T00:07:31.371Z,13.20
2018-04-17T00:09:59.700Z,13.13
2018-04-17T00:12:27.998Z,13.09
2018-04-17T00:14:56.281Z,13.05
2018-04-17T00:17:24.606Z,13.10
2018-04-17T00:19:52.940Z,13.02
2018-04-17T00:22:21.194Z,12.95
2018-04-17T00:24:49.507Z,12.90
2018-04-17T00:27:17.767Z,12.91
2018-04-17T00:29:46.123Z,12.88
2018-04-17T00:32:14.399Z,12.88
2018-04-17T00:34:42.847Z,12.88
2018-04-17T00:37:11.090Z,12.58
2018-04-17T00:39:39.373Z,12.61
2018-04-17T00:42:07.652Z,12.56
2018-04-17T00:44:36.154Z,12.58
2018-04-17T00:47:05.027Z,12.58
2018-04-17T00:49:33.316Z,12.32
2018-04-17T00:52:01.592Z,12.17
2018-04-17T00:54:29.891Z,12.33
2018-04-17T00:56:58.193Z,12.18
2018-04-17T00:59:26.458Z,12.06
2018-04-17T01:01:54.754Z,11.95
2018-04-17T01:04:23.053Z,12.05
2018-04-17T01:06:51.754Z,12.10
2018-04-17T01:09:20.014Z,12.15
2018-04-17T01:11:48.323Z,12.13
2018-04-17T01:14:16.600Z,12.11
2018-04-17T01:16:44.927Z,12.16
2018-04-17T01:19:13.194Z,12.08
2018-04-17T01:21:41.484Z,12.06
2018-04-17T01:24:09.742Z,12.05
2018-04-17T01:26:38.035Z,11.96
2018-04-17T01:29:06.306Z,11.93
2018-04-17T01:31:34.610Z,11.88
2018-04-17T01:34:02.878Z,11.72
2018-04-17T01:36:31.264Z,11.67
2018-04-17T01:38:59.573Z,11.67
2018-04-17T01:41:27.865Z,11.74
2018-04-17T01:43:56.173Z,11.74
2018-04-17T01:46:24.475Z,11.86
2018-04-17T01:48:52.755Z,11.91
2018-04-17T01:51:21.193Z,11.88
2018-04-17T01:53:49.447Z,11.91
2018-04-17T01:56:17.734Z,11.79
2018-04-17T01:58:46.269Z,11.77
2018-04-17T02:01:14.559Z,11.60
2018-04-17T02:03:42.856Z,11.60
2018-04-17T02:06:11.149Z,11.49
2018-04-17T02:08:39.443Z,11.42
2018-04-17T02:11:07.718Z,11.46
2018-04-17T02:13:36.051Z,11.43
2018-04-17T02:16:04.355Z,11.31
2018-04-17T02:18:32.697Z,11.03
2018-04-17T02:21:01.166Z,11.28
2018-04-17T02:23:29.466Z,11.23
2018-04-17T02:25:58.926Z,11.28
2018-04-17T02:28:27.231Z,11.47
2018-04-17T02:30:55.525Z,11.36
2018-04-17T02:33:23.813Z,11.29
2018-04-17T02:35:52.083Z,11.32
2018-04-17T02:38:20.435Z,11.16
2018-04-17T02:40:48.716Z,11.14
2018-04-17T02:43:17.022Z,11.16
2018-04-17T02:45:45.317Z,11.17
2018-04-17T02:48:13.583Z,11.03
2018-04-17T02:50:41.864Z,11.05
2018-04-17T02:55:44.770Z,11.07
2018-04-17T02:58:13.613Z,11.08
2018-04-17T03:00:41.913Z,11.02
2018-04-17T03:03:10.189Z,10.92
2018-04-17T03:05:38.478Z,11.04
2018-04-17T03:08:06.746Z,11.08
2018-04-17T03:10:35.055Z,10.90
2018-04-17T03:13:04.222Z,10.88
2018-04-17T03:15:32.529Z,10.96
2018-04-17T03:18:00.801Z,10.91
2018-04-17T03:20:29.090Z,10.76
2018-04-17T03:22:57.427Z,10.75
2018-04-17T03:25:25.833Z,10.77
2018-04-17T03:27:54.075Z,10.74
2018-04-17T03:30:22.358Z,10.58
2018-04-17T03:32:50.655Z,10.56
2018-04-17T03:35:19.212Z,10.58
2018-04-17T03:37:47.497Z,10.62
2018-04-17T03:40:16.581Z,10.72
2018-04-17T03:42:44.957Z,10.75
2018-04-17T03:45:13.242Z,10.70
2018-04-17T03:47:41.514Z,10.51
2018-04-17T03:50:10.102Z,10.29
2018-04-17T03:52:38.451Z,10.20
2018-04-17T03:55:06.727Z,10.14
2018-04-17T03:57:35.028Z,10.16
2018-04-17T04:00:03.308Z,10.30
2018-04-17T04:02:31.590Z,10.31
2018-04-17T04:04:59.861Z,10.36
2018-04-17T04:07:28.158Z,10.35
2018-04-17T04:09:56.422Z,10.33
2018-04-17T04:12:24.705Z,10.28
2018-04-17T04:14:52.963Z,10.27
2018-04-17T04:17:32.992Z,10.22
2018-04-17T04:20:13.037Z,10.18
2018-04-17T04:22:53.086Z,10.25
2018-04-17T04:25:38.673Z,10.27
2018-04-17T04:28:07.905Z,10.28
2018-04-17T04:30:36.284Z,10.20
2018-04-17T04:33:05.381Z,10.14
2018-04-17T04:35:33.647Z,10.16
2018-04-17T04:38:01.937Z,10.10
2018-04-17T04:40:30.243Z,10.12
2018-04-17T04:42:58.511Z,10.06
2018-04-17T04:45:27.661Z,10.02
2018-04-17T04:47:55.939Z,10.02
2018-04-17T04:50:24.220Z,10.14
2018-04-17T04:52:52.618Z,10.07
2018-04-17T04:55:20.998Z,10.09
2018-04-17T04:57:49.269Z,10.12
2018-04-17T05:00:17.556Z,10.03
2018-04-17T05:02:45.834Z,10.07
2018-04-17T05:05:14.151Z,10.07
2018-04-17T05:07:42.803Z,10.00
2018-04-17T05:10:11.289Z,9.98
2018-04-17T05:12:39.993Z,9.92
2018-04-17T05:15:08.336Z,9.78
2018-04-17T05:17:36.616Z,9.70
2018-04-17T05:20:05.535Z,9.79
2018-04-17T05:22:33.783Z,9.91
2018-04-17T05:25:02.172Z,9.96
2018-04-17T05:27:30.439Z,10.01
2018-04-17T05:29:58.743Z,10.10
2018-04-17T05:32:27.063Z,10.16
2018-04-17T05:34:55.476Z,10.18
2018-04-17T05:37:23.799Z,10.34
2018-04-17T05:39:52.054Z,10.37
2018-04-17T05:42:20.442Z,10.38
2018-04-17T05:44:48.699Z,10.40
2018-04-17T05:47:17.014Z,10.45
2018-04-17T05:49:45.273Z,10.43
2018-04-17T05:52:13.591Z,10.50
2018-04-17T05:54:42.007Z,10.50
2018-04-17T05:57:10.346Z,10.77
2018-04-17T05:59:38.622Z,10.76
2018-04-17T06:02:06.969Z,10.89
2018-04-17T06:04:35.646Z,10.87
2018-04-17T06:07:03.925Z,11.07
2018-04-17T06:09:32.305Z,11.07
2018-04-17T06:12:00.608Z,10.93
2018-04-17T06:14:28.862Z,10.92
2018-04-17T06:16:57.171Z,11.07
2018-04-17T06:19:25.704Z,11.15
2018-04-17T06:21:53.990Z,11.12
2018-04-17T06:24:22.626Z,11.30
2018-04-17T06:26:50.895Z,11.36
2018-04-17T06:29:19.200Z,11.47
2018-04-17T06:31:47.447Z,11.58
2018-04-17T06:34:15.753Z,11.60
2018-04-17T06:36:44.029Z,11.61
2018-04-17T06:39:12.357Z,11.79
2018-04-17T06:41:40.673Z,11.87
2018-04-17T06:44:09.031Z,12.01
2018-04-17T06:46:37.359Z,12.25
2018-04-17T06:49:06.176Z,12.38
2018-04-17T06:51:34.513Z,12.48
2018-04-17T06:54:02.857Z,12.57
2018-04-17T06:56:31.459Z,12.74
2018-04-17T06:58:59.773Z,12.95
2018-04-17T07:01:28.041Z,13.14
2018-04-17T07:03:56.363Z,13.22
2018-04-17T07:06:24.622Z,13.31
2018-04-17T07:08:52.986Z,13.37
2018-04-17T07:11:21.287Z,13.48
2018-04-17T07:13:49.670Z,13.73
2018-04-17T07:16:18.739Z,13.85
2018-04-17T07:18:47.046Z,13.83
2018-04-17T07:21:15.379Z,13.97
2018-04-17T07:23:43.716Z,14.11
2018-04-17T07:26:11.963Z,14.26
2018-04-17T07:28:40.260Z,14.40
2018-04-17T07:31:08.602Z,14.55
2018-04-17T07:33:36.973Z,14.61
2018-04-17T07:36:05.703Z,14.54
2018-04-17T07:38:34.011Z,14.65
2018-04-17T07:41:02.298Z,14.89
2018-04-17T07:43:30.578Z,15.01
2018-04-17T07:45:58.889Z,15.06
2018-04-17T07:48:39.253Z,15.15
2018-04-17T07:51:07.537Z,15.31
2018-04-17T07:53:35.832Z,15.54
2018-04-17T07:56:04.153Z,15.66
2018-04-17T07:58:34.381Z,15.71
2018-04-17T08:01:02.690Z,15.83
2018-04-17T08:03:30.969Z,15.93
2018-04-17T08:05:59.306Z,16.25
2018-04-17T08:08:28.311Z,16.41
2018-04-17T08:10:57.596Z,16.32
2018-04-17T08:13:25.913Z,16.33
2018-04-17T08:15:54.247Z,16.20
2018-04-17T08:18:22.526Z,16.24
2018-04-17T08:20:50.841Z,16.33
2018-04-17T08:23:19.194Z,16.33
2018-04-17T08:25:48.275Z,16.37
2018-04-17T08:28:16.613Z,16.63
2018-04-17T08:30:44.927Z,16.91
2018-04-17T08:33:13.211Z,17.17
2018-04-17T08:35:41.607Z,17.42
2018-04-17T08:38:09.862Z,17.62
2018-04-17T08:40:38.159Z,17.70
2018-04-17T08:43:06.449Z,17.85
2018-04-17T08:45:34.750Z,18.01
2018-04-17T08:48:03.709Z,18.09
2018-04-17T08:50:32.025Z,18.00
2018-04-17T08:53:00.356Z,18.04
2018-04-17T08:55:28.677Z,18.07
2018-04-17T08:57:56.964Z,17.99
2018-04-17T09:00:25.245Z,18.12
2018-04-17T09:02:53.541Z,18.40
2018-04-17T09:05:21.830Z,18.65
2018-04-17T09:07:50.136Z,18.56
2018-04-17T09:10:18.491Z,18.64
2018-04-17T09:12:46.839Z,18.80
2018-04-17T09:15:15.150Z,18.96
2018-04-17T09:17:43.449Z,19.05
2018-04-17T09:20:11.729Z,18.98
2018-04-17T09:22:40.052Z,19.04
2018-04-17T09:25:09.161Z,19.04
2018-04-17T09:27:37.623Z,19.12
2018-04-17T09:30:05.835Z,19.39
2018-04-17T09:32:34.138Z,19.53
2018-04-17T09:35:02.405Z,19.68
2018-04-17T09:37:30.765Z,19.70
2018-04-17T09:39:59.096Z,19.91
2018-04-17T09:42:27.403Z,20.05
2018-04-17T09:44:55.725Z,20.20
2018-04-17T09:47:24.083Z,20.01
2018-04-17T09:49:52.376Z,20.04
2018-04-17T09:52:20.745Z,19.94
2018-04-17T09:54:49.101Z,20.13
2018-04-17T09:57:17.406Z,20.32
2018-04-17T09:59:45.698Z,19.97
2018-04-17T10:02:14.066Z,19.82
2018-04-17T10:04:42.440Z,19.93
2018-04-17T10:07:10.795Z,20.27
2018-04-17T10:09:39.130Z,20.51
2018-04-17T10:12:07.533Z,20.48
2018-04-17T10:14:36.454Z,20.72
2018-04-17T10:17:05.752Z,20.58
2018-04-17T10:19:34.130Z,20.83
2018-04-17T10:22:02.411Z,21.00
2018-04-17T10:24:31.013Z,20.78
2018-04-17T10:26:59.386Z,20.77
2018-04-17T10:29:27.664Z,20.75
2018-04-17T10:31:56.500Z,20.75
2018-04-17T10:34:24.808Z,20.67
2018-04-17T10:36:53.100Z,20.77
2018-04-17T10:39:21.473Z,20.78
2018-04-17T10:41:49.767Z,20.89
2018-04-17T10:44:18.115Z,21.15
2018-04-17T10:46:46.608Z,21.46
2018-04-17T10:49:14.977Z,21.69
2018-04-17T10:51:43.231Z,21.78
2018-04-17T10:54:11.542Z,21.89
2018-04-17T10:56:39.817Z,21.91
2018-04-17T10:59:08.147Z,21.79
2018-04-17T11:01:36.405Z,21.92
2018-04-17T11:04:04.853Z,21.86
2018-04-17T11:06:33.121Z,21.63
2018-04-17T11:09:01.453Z,21.59
2018-04-17T11:11:29.813Z,21.56
2018-04-17T11:13:58.067Z,21.51
2018-04-17T11:16:26.357Z,21.62
2018-04-17T11:18:54.706Z,21.58
2018-04-17T11:21:23.002Z,21.58
2018-04-17T11:23:51.357Z,21.90
2018-04-17T11:26:19.635Z,22.18
2018-04-17T11:28:47.922Z,22.53
2018-04-17T11:31:16.233Z,22.54
2018-04-17T11:33:44.500Z,22.33
2018-04-17T11:36:12.903Z,22.51
2018-04-17T11:38:41.166Z,22.87
2018-04-17T11:41:09.470Z,23.05
2018-04-17T11:43:37.857Z,23.10
2018-04-17T11:46:06.161Z,23.14
2018-04-17T11:48:34.440Z,23.40
2018-04-17T11:51:02.751Z,23.19
2018-04-17T11:53:31.011Z,23.14
2018-04-17T11:55:59.309Z,23.17
2018-04-17T11:58:27.586Z,23.16
2018-04-17T12:00:55.867Z,23.03
2018-04-17T12:03:24.168Z,22.98
2018-04-17T12:05:52.624Z,23.34
2018-04-17T12:08:20.908Z,23.58
2018-04-17T12:10:49.188Z,24.03
2018-04-17T12:13:17.558Z,24.25
2018-04-17T12:15:45.859Z,24.51
2018-04-17T12:18:14.156Z,24.69
2018-04-17T12:20:42.418Z,24.75
2018-04-17T12:23:10.736Z,24.73
2018-04-17T12:25:39.150Z,24.76
2018-04-17T12:28:07.470Z,24.70
2018-04-17T12:30:35.761Z,24.67
2018-04-17T12:33:04.045Z,24.80
2018-04-17T12:35:32.347Z,25.02
2018-04-17T12:38:00.705Z,25.24
2018-04-17T12:40:29.370Z,25.51
2018-04-17T12:42:57.673Z,25.70
2018-04-17T12:45:26.622Z,25.72
2018-04-17T12:47:55.171Z,25.65
2018-04-17T12:50:23.482Z,25.45
2018-04-17T12:52:51.826Z,25.79
2018-04-17T12:55:20.087Z,26.07
2018-04-17T12:57:48.395Z,26.07
2018-04-17T13:00:18.542Z,26.19
2018-04-17T13:02:49.987Z,26.48
2018-04-17T13:05:18.305Z,26.63
2018-04-17T13:07:46.627Z,26.69
2018-04-17T13:10:14.886Z,26.67
2018-04-17T13:12:43.152Z,26.76
2018-04-17T13:15:11.466Z,26.88
2018-04-17T13:17:39.749Z,27.01
2018-04-17T13:20:08.037Z,26.97
2018-04-17T13:22:36.295Z,26.93
2018-04-17T13:25:05.614Z,27.10
2018-04-17T13:27:33.903Z,27.39
2018-04-17T13:30:02.248Z,27.33
2018-04-17T13:32:30.532Z,27.46
2018-04-17T13:34:58.857Z,27.04
2018-04-17T13:37:27.130Z,26.59
2018-04-17T13:39:58.076Z,27.00
2018-04-17T13:42:26.364Z,26.83
2018-04-17T13:44:54.654Z,27.11
2018-04-17T13:47:22.941Z,27.56
2018-04-17T13:49:51.359Z,27.65
2018-04-17T13:52:19.726Z,27.82
2018-04-17T13:54:48.499Z,27.28
2018-04-17T13:57:16.821Z,27.37
2018-04-17T13:59:46.443Z,27.79
2018-04-17T14:02:14.728Z,28.01
2018-04-17T14:04:43.018Z,28.23
2018-04-17T14:07:11.356Z,27.92
2018-04-17T14:09:40.048Z,27.75
2018-04-17T14:12:08.364Z,27.60
2018-04-17T14:14:36.630Z,27.59
2018-04-17T14:17:05.046Z,27.67
2018-04-17T14:19:33.347Z,27.81
2018-04-17T14:22:01.695Z,28.50
2018-04-17T14:24:29.926Z,28.80
2018-04-17T14:26:58.231Z,28.93
2018-04-17T14:29:27.371Z,28.82
2018-04-17T14:31:55.646Z,28.93
2018-04-17T14:34:23.947Z,29.29
2018-04-17T14:36:53.434Z,29.09
2018-04-17T14:39:21.727Z,29.48
2018-04-17T14:41:50.040Z,29.40
2018-04-17T14:44:18.301Z,29.62
2018-04-17T14:46:46.610Z,29.81
2018-04-17T14:49:14.874Z,30.34
2018-04-17T14:51:43.211Z,30.41
2018-04-17T14:54:11.474Z,30.46
2018-04-17T14:56:39.810Z,30.37
2018-04-17T14:59:08.125Z,29.82
2018-04-17T15:01:36.429Z,29.21
2018-04-17T15:04:04.730Z,29.99
2018-04-17T15:06:33.042Z,30.35
2018-04-17T15:09:01.331Z,29.81
2018-04-17T15:11:29.663Z,30.05
2018-04-17T15:13:58.011Z,30.72
2018-04-17T15:16:26.324Z,30.04
2018-04-17T15:18:54.657Z,30.06
2018-04-17T15:21:22.973Z,29.81
2018-04-17T15:23:51.857Z,29.37
2018-04-17T15:26:20.227Z,29.53
2018-04-17T15:28:48.520Z,30.48
2018-04-17T15:31:16.839Z,31.16
2018-04-17T15:33:45.138Z,31.55
2018-04-17T15:36:13.516Z,31.77
2018-04-17T15:38:41.810Z,32.25
2018-04-17T15:41:10.194Z,32.33
2018-04-17T15:43:38.699Z,32.30
2018-04-17T15:46:06.994Z,31.90
